createdAt,value
2019-04-28T00:04:22.211Z,72.9
2019-04-28T00:09:21.259Z,72.9
2019-04-28T00:14:17.613Z,72.7
2019-04-28T00:19:15.202Z,72.8
2019-04-28T00:24:12.786Z,72.8
2019-04-28T00:29:11.085Z,73.7
2019-04-28T00:34:07.627Z,73.6
2019-04-28T00:39:04.853Z,73.3
2019-04-28T00:44:02.061Z,70.8
2019-04-28T00:48:59.665Z,69.4
2019-04-28T00:53:57.232Z,68.4
2019-04-28T00:58:54.525Z,68.2
2019-04-28T01:03:51.961Z,67.9
2019-04-28T01:08:48.963Z,67.5
2019-04-28T01:13:46.399Z,67.7
2019-04-28T01:18:43.962Z,68.1
2019-04-28T01:23:41.496Z,67.5
2019-04-28T01:28:39.756Z,66.7
2019-04-28T01:33:36.407Z,66.9
2019-04-28T01:38:33.916Z,66.8
2019-04-28T01:43:31.513Z,66.3
2019-04-28T01:48:29.602Z,66.5
2019-04-28T01:53:26.561Z,66.6
2019-04-28T01:58:23.972Z,67.3
2019-04-28T02:03:21.415Z,67.5
2019-04-28T02:08:20.227Z,67.4
2019-04-28T02:13:16.587Z,68.2
2019-04-28T02:18:13.918Z,67
2019-04-28T02:23:11.501Z,67.8
2019-04-28T02:28:09.338Z,68.5
2019-04-28T02:33:06.674Z,68.1
2019-04-28T02:38:04.418Z,67.3
2019-04-28T02:43:01.805Z,67.1
2019-04-28T02:48:00.943Z,66.8
2019-04-28T02:52:56.789Z,67.4
2019-04-28T02:57:54.149Z,67.5
2019-04-28T03:02:52.051Z,67.6
2019-04-28T03:07:51.412Z,67.1
2019-04-28T03:12:47.045Z,66.6
2019-04-28T03:17:44.739Z,66.8
2019-04-28T03:22:42.323Z,67.3
2019-04-28T03:27:40.568Z,67.2
2019-04-28T03:32:46.975Z,67.4
2019-04-28T03:37:34.695Z,68.4
2019-04-28T03:42:32.853Z,68.5
2019-04-28T03:47:31.095Z,68.4
2019-04-28T03:52:27.672Z,68.6
2019-04-28T03:57:25.233Z,68.5
2019-04-28T04:02:23.557Z,68.7
2019-04-28T04:07:21.462Z,68.5
2019-04-28T04:12:17.918Z,68.9
2019-04-28T04:17:15.619Z,68.3
2019-04-28T04:22:13.184Z,68.7
2019-04-28T04:27:11.013Z,67.7
2019-04-28T04:32:14.625Z,69
2019-04-28T04:37:05.916Z,69.7
2019-04-28T04:42:03.471Z,69.4
2019-04-28T04:47:01.266Z,69.8
2019-04-28T04:52:00.369Z,69.7
2019-04-28T04:56:56.444Z,68.9
2019-04-28T05:01:53.975Z,68.8
2019-04-28T05:06:51.547Z,68.3
2019-04-28T05:11:49.896Z,67.8
2019-04-28T05:16:46.999Z,67.4
2019-04-28T05:21:44.514Z,66.1
2019-04-28T05:26:47.409Z,65.9
2019-04-28T05:31:40.178Z,66.2
2019-04-28T05:36:42.177Z,65.4
2019-04-28T05:41:35.139Z,66
2019-04-28T05:46:33.298Z,66.3
2019-04-28T05:51:30.715Z,66
2019-04-28T05:56:29.557Z,64.3
2019-04-28T06:01:25.655Z,64.6
2019-04-28T06:06:23.223Z,64.9
2019-04-28T06:11:20.883Z,64.4
2019-04-28T06:16:19.541Z,64.8
2019-04-28T06:21:15.650Z,65.5
2019-04-28T06:26:13.595Z,64.7
2019-04-28T06:31:10.517Z,63.9
2019-04-28T06:36:07.868Z,63.8
2019-04-28T06:41:05.347Z,63.5
2019-04-28T06:46:02.463Z,62.6
2019-04-28T06:51:00.027Z,61.7
2019-04-28T06:55:57.532Z,60.8
2019-04-28T07:00:55.095Z,60.7
2019-04-28T07:05:52.649Z,60.9
2019-04-28T07:10:50.291Z,59.8
2019-04-28T07:15:47.884Z,58.4
2019-04-28T07:20:45.589Z,59
2019-04-28T07:25:43.465Z,57.5
2019-04-28T07:30:40.822Z,58.2
2019-04-28T07:35:38.140Z,58.4
2019-04-28T07:40:35.758Z,58.9
2019-04-28T07:45:33.096Z,58.7
2019-04-28T07:50:30.637Z,58.7
2019-04-28T07:55:28.107Z,57.5
2019-04-28T08:00:25.677Z,57.7
2019-04-28T08:05:23.314Z,57.4
2019-04-28T08:10:20.920Z,56.3
2019-04-28T08:15:18.228Z,56.2
2019-04-28T08:20:15.772Z,54.8
2019-04-28T08:25:13.513Z,52.8
2019-04-28T08:30:11.415Z,53.6
2019-04-28T08:35:08.988Z,52.6
2019-04-28T08:40:06.728Z,52.8
2019-04-28T08:45:04.486Z,51.9
2019-04-28T08:50:02.196Z,52.3
2019-04-28T08:54:59.879Z,51.7
2019-04-28T08:59:57.319Z,51.2
2019-04-28T09:04:55.137Z,50.2
2019-04-28T09:09:52.737Z,49.9
2019-04-28T09:14:50.690Z,49.1
2019-04-28T09:19:48.315Z,49.4
2019-04-28T09:24:45.888Z,48.8
2019-04-28T09:29:43.554Z,49.8
2019-04-28T09:34:40.706Z,50.1
2019-04-28T09:39:38.441Z,47.7
2019-04-28T09:44:35.753Z,47.8
2019-04-28T09:49:33.562Z,46.3
2019-04-28T09:54:31.102Z,45.8
2019-04-28T09:59:28.891Z,45.1
2019-04-28T10:04:26.578Z,45.3
2019-04-28T10:09:23.831Z,43.4
2019-04-28T10:14:21.390Z,43.6
2019-04-28T10:19:19.151Z,43.3
2019-04-28T10:24:16.735Z,43.4
2019-04-28T10:29:14.351Z,43.3
2019-04-28T10:34:12.121Z,43.6
2019-04-28T10:39:09.738Z,43.2
2019-04-28T10:44:08.635Z,44
2019-04-28T10:49:04.959Z,41.9
2019-04-28T10:54:02.088Z,43.1
2019-04-28T10:58:59.869Z,42.6
2019-04-28T11:03:57.704Z,42.2
2019-04-28T11:08:55.228Z,41.3
2019-04-28T11:13:52.470Z,41.4
2019-04-28T11:18:49.982Z,40.8
2019-04-28T11:23:47.746Z,40.6
2019-04-28T11:28:45.616Z,39.9
2019-04-28T11:33:42.806Z,39.1
2019-04-28T11:38:40.610Z,39.5
2019-04-28T11:43:38.122Z,39
2019-04-28T11:48:35.688Z,38.7
2019-04-28T11:53:33.411Z,36.7
2019-04-28T11:58:30.826Z,37.7
2019-04-28T12:03:28.306Z,37.9
2019-04-28T12:08:26.042Z,37.1
2019-04-28T12:13:23.470Z,37.6
2019-04-28T12:18:20.944Z,35.1
2019-04-28T12:23:18.934Z,34.4
2019-04-28T12:28:16.713Z,36.3
2019-04-28T12:33:14.319Z,36.9
2019-04-28T12:38:11.728Z,34.5
2019-04-28T12:43:09.342Z,34.6
2019-04-28T12:48:07.130Z,35.7
2019-04-28T12:53:04.816Z,34.5
2019-04-28T12:58:02.401Z,34.9
2019-04-28T13:03:00.180Z,34.8
2019-04-28T13:07:57.697Z,35.3
2019-04-28T13:12:55.367Z,35.7
2019-04-28T13:17:52.803Z,35.4
2019-04-28T13:22:50.148Z,35.5
2019-04-28T13:27:47.729Z,35.2
2019-04-28T13:32:45.433Z,35
2019-04-28T13:37:43.326Z,34.3
2019-04-28T13:42:41.163Z,34.4
2019-04-28T13:47:38.954Z,32.8
2019-04-28T13:52:37.202Z,31.3
2019-04-28T13:57:35.274Z,31.3
2019-04-28T14:02:33.364Z,31.8
2019-04-28T14:07:31.062Z,31.6
2019-04-28T14:12:28.790Z,31.8
2019-04-28T14:17:26.208Z,33
2019-04-28T14:22:24.030Z,32.7
2019-04-28T14:27:21.764Z,32.8
2019-04-28T14:32:19.144Z,32.9
2019-04-28T14:37:16.687Z,32.9
2019-04-28T14:42:14.403Z,33.4
2019-04-28T14:47:12.007Z,33.4
2019-04-28T14:52:09.763Z,33.5
2019-04-28T14:57:07.480Z,33.4
2019-04-28T15:02:05.243Z,33.5
2019-04-28T15:07:02.954Z,33.7
2019-04-28T15:12:00.581Z,33.4
2019-04-28T15:16:58.225Z,33.2
2019-04-28T15:21:55.444Z,33.5
2019-04-28T15:26:53.267Z,33.1
2019-04-28T15:31:51.204Z,33.2
2019-04-28T15:36:48.736Z,33.3
2019-04-28T15:41:46.348Z,33
2019-04-28T15:46:43.918Z,33.4
2019-04-28T15:51:41.439Z,33
2019-04-28T15:56:39.170Z,32.1
2019-04-28T16:01:36.670Z,31.8
2019-04-28T16:06:34.314Z,32.6
2019-04-28T16:11:32.036Z,32.5
2019-04-28T16:16:29.703Z,32.3
2019-04-28T16:21:27.484Z,32.8
2019-04-28T16:26:25.180Z,32.9
2019-04-28T16:31:22.893Z,32.2
2019-04-28T16:36:20.508Z,32.7
2019-04-28T16:41:17.958Z,32.7
2019-04-28T16:46:15.298Z,32.5
2019-04-28T16:51:14.573Z,32.6
2019-04-28T16:56:10.335Z,33.1
2019-04-28T17:01:07.724Z,33.6
2019-04-28T17:06:05.312Z,34.2
2019-04-28T17:11:02.355Z,34.1
2019-04-28T17:16:00.078Z,34.5
2019-04-28T17:20:57.488Z,34.8
2019-04-28T17:25:54.989Z,34.8
2019-04-28T17:30:52.573Z,35.1
2019-04-28T17:35:50.145Z,35.5
2019-04-28T17:40:47.894Z,36
2019-04-28T17:45:45.541Z,36.3
2019-04-28T17:50:45.294Z,36.2
2019-04-28T17:55:40.891Z,36.2
2019-04-28T18:00:38.425Z,36
2019-04-28T18:05:36.139Z,35.7
2019-04-28T18:10:33.893Z,38.9
2019-04-28T18:15:31.469Z,39.4
2019-04-28T18:20:30.107Z,40.4
2019-04-28T18:25:26.958Z,40.6
2019-04-28T18:30:24.853Z,40.9
2019-04-28T18:35:22.463Z,41.4
2019-04-28T18:40:20.144Z,41.9
2019-04-28T18:45:17.679Z,43.3
2019-04-28T18:50:14.951Z,42.1
2019-04-28T18:55:12.481Z,41.6
2019-04-28T19:00:09.765Z,41.8
2019-04-28T19:05:10.234Z,42.1
2019-04-28T19:10:05.415Z,42.9
2019-04-28T19:15:02.985Z,43.7
2019-04-28T19:20:00.553Z,44.4
2019-04-28T19:24:58.169Z,44.5
2019-04-28T19:29:55.848Z,44.9
2019-04-28T19:34:53.392Z,45.6
2019-04-28T19:39:50.913Z,45.3
2019-04-28T19:44:48.551Z,45.6
2019-04-28T19:49:45.551Z,46.1
2019-04-28T19:54:42.976Z,46.2
2019-04-28T19:59:40.593Z,46.3
2019-04-28T20:04:38.698Z,45.6
2019-04-28T20:09:36.118Z,45.8
2019-04-28T20:14:33.533Z,45.9
2019-04-28T20:19:31.085Z,46
2019-04-28T20:24:28.855Z,46.6
2019-04-28T20:29:25.921Z,46.8
2019-04-28T20:34:23.657Z,47.5
2019-04-28T20:39:20.805Z,47.6
2019-04-28T20:44:18.379Z,48.1
2019-04-28T20:49:15.743Z,48.7
2019-04-28T20:54:13.264Z,48.1
2019-04-28T20:59:10.876Z,48.7
2019-04-28T21:04:08.296Z,48.4
2019-04-28T21:09:06.066Z,48.6
2019-04-28T21:14:03.528Z,48.7
2019-04-28T21:19:01.071Z,48.9
2019-04-28T21:23:58.557Z,49.8
2019-04-28T21:28:56.046Z,50.2
2019-04-28T21:33:53.556Z,50.4
2019-04-28T21:38:51.323Z,50.7
2019-04-28T21:43:48.894Z,50.9
2019-04-28T21:48:46.576Z,51.5
2019-04-28T21:53:44.240Z,51.5
2019-04-28T21:58:41.589Z,51.9
2019-04-28T22:03:39.136Z,51.9
2019-04-28T22:08:36.718Z,52.2
2019-04-28T22:13:33.966Z,52.6
2019-04-28T22:18:31.335Z,52.6
2019-04-28T22:23:28.838Z,53.3
2019-04-28T22:28:26.162Z,53.7
2019-04-28T22:33:23.537Z,53.9
2019-04-28T22:38:21.039Z,54
2019-04-28T22:43:18.735Z,54
2019-04-28T22:48:16.446Z,54.2
2019-04-28T22:53:14.135Z,54.5
2019-04-28T22:58:11.212Z,54.6
2019-04-28T23:03:08.641Z,55.2
2019-04-28T23:08:06.129Z,55.5
2019-04-28T23:13:03.599Z,55.4
2019-04-28T23:18:00.763Z,55.1
2019-04-28T23:22:58.202Z,55.6
2019-04-28T23:27:55.811Z,55.1
2019-04-28T23:32:53.394Z,55.3
2019-04-28T23:37:51.057Z,54.9
2019-04-28T23:42:48.530Z,55.1
2019-04-28T23:47:46.128Z,54.8
2019-04-28T23:52:43.798Z,55.1
2019-04-28T23:57:41.180Z,54.4
